Time;durP1;ratioP1;P1;durP2;ratioP2;P2;SDS_P1;SDS_P2;PMS_P1;PMS_P2;Temp;Humidity;BMP_temperature;BMP_pressure;BME280_temperature;BME280_humidity;BME280_pressure;Samples;Min_cycle;Max_cycle;Signal;HPM_P1;HPM_P2
2022/11/20 00:00:46;;;;;;;41.30;11.60;;;;;2.10;95672.00;;;;8527952;27;20232;-74
2022/11/20 00:04:49;;;;;;;39.33;10.33;;;;;2.00;95675.00;;;;8529439;27;20220;-74
2022/11/20 00:08:55;;;;;;;25.50;9.37;;;;;1.90;95672.00;;;;8528930;27;20218;-73
2022/11/20 00:13:30;;;;;;;35.30;10.80;;;;;1.90;95663.00;;;;8529039;27;20212;-74
2022/11/20 00:17:33;;;;;;;36.13;10.27;;;;;1.90;95676.00;;;;8529330;27;20283;-73
2022/11/20 00:21:36;;;;;;;48.63;11.40;;;;;1.90;95678.00;;;;8528312;27;20283;-73
2022/11/20 00:25:39;;;;;;;39.93;10.17;;;;;2.00;95671.00;;;;8529411;27;20235;-74
2022/11/20 00:30:18;;;;;;;41.40;11.73;;;;;2.00;95664.00;;;;8527625;27;20553;-74
2022/11/20 00:34:21;;;;;;;35.80;10.13;;;;;2.10;95678.00;;;;8528804;27;20531;-74
2022/11/20 00:38:24;;;;;;;30.27;9.80;;;;;2.20;95678.00;;;;8528682;27;20678;-74
2022/11/20 00:42:27;;;;;;;32.83;9.53;;;;;2.20;95674.00;;;;8534846;27;20275;-74
2022/11/20 00:46:31;;;;;;;33.73;10.97;;;;;2.20;95677.00;;;;8534904;27;20650;-74
2022/11/20 00:50:34;;;;;;;38.70;10.27;;;;;2.10;95680.00;;;;8536139;27;20227;-74
2022/11/20 00:54:37;;;;;;;39.53;10.70;;;;;2.10;95671.00;;;;8535318;27;20310;-74
2022/11/20 00:58:42;;;;;;;37.77;12.10;;;;;2.20;95678.00;;;;8535260;27;20225;-74
2022/11/20 01:02:46;;;;;;;32.00;11.27;;;;;2.20;95674.00;;;;8533743;27;20223;-74
2022/11/20 01:06:49;;;;;;;53.53;13.30;;;;;2.20;95671.00;;;;8534734;27;20229;-74
2022/11/20 01:10:52;;;;;;;51.43;12.67;;;;;2.20;95673.00;;;;8535355;27;20219;-74
2022/11/20 01:14:55;;;;;;;57.83;13.40;;;;;2.20;95683.00;;;;8533766;27;20235;-74
2022/11/20 01:19:01;;;;;;;42.60;10.70;;;;;2.20;95683.00;;;;8534368;27;21000;-74
2022/11/20 01:23:36;;;;;;;50.57;11.70;;;;;2.20;95662.00;;;;8533844;27;20573;-74
2022/11/20 01:27:39;;;;;;;44.50;10.47;;;;;2.20;95677.00;;;;8533643;27;20218;-74
2022/11/20 01:31:42;;;;;;;45.50;11.00;;;;;2.20;95678.00;;;;8531319;27;20223;-74
2022/11/20 01:35:46;;;;;;;51.97;11.37;;;;;2.20;95672.00;;;;8534177;27;20214;-74
2022/11/20 01:39:49;;;;;;;47.70;11.40;;;;;2.30;95675.00;;;;8533145;27;20212;-74
2022/11/20 01:43:53;;;;;;;51.57;11.53;;;;;2.30;95680.00;;;;8534171;27;20275;-74
2022/11/20 01:47:56;;;;;;;49.30;11.40;;;;;2.40;95684.00;;;;8533035;27;20225;-74
2022/11/20 01:52:04;;;;;;;56.83;11.30;;;;;2.40;95672.00;;;;8532841;27;20248;-74
2022/11/20 01:56:11;;;;;;;45.77;10.90;;;;;2.50;95679.00;;;;8532795;27;20543;-73
2022/11/20 02:00:17;;;;;;;59.03;11.30;;;;;2.50;95668.00;;;;8532503;27;20550;-73
2022/11/20 02:04:21;;;;;;;53.57;11.43;;;;;2.50;95679.00;;;;8532335;27;20277;-73
2022/11/20 02:08:26;;;;;;;58.57;11.77;;;;;2.50;95677.00;;;;8532181;27;20222;-73
2022/11/20 02:17:04;;;;;;;48.87;12.00;;;;;2.60;95668.00;;;;8528505;27;20269;-74
2022/11/20 02:21:13;;;;;;;56.47;11.33;;;;;2.50;95677.00;;;;8532553;27;20228;-74
2022/11/20 02:25:19;;;;;;;46.77;10.73;;;;;2.60;95681.00;;;;8530892;27;20216;-74
2022/11/20 02:29:27;;;;;;;44.37;11.30;;;;;2.60;95666.00;;;;8532764;27;20562;-74
2022/11/20 02:33:58;;;;;;;46.27;12.27;;;;;2.60;95670.00;;;;8531459;27;20286;-74
2022/11/20 02:38:03;;;;;;;49.53;9.87;;;;;2.60;95667.00;;;;8531523;27;20633;-74
2022/11/20 02:42:08;;;;;;;51.80;11.13;;;;;2.60;95669.00;;;;8503093;27;20221;-74
2022/11/20 02:46:11;;;;;;;47.10;10.77;;;;;2.60;95659.00;;;;8531547;27;20219;-74
2022/11/20 02:50:45;;;;;;;45.93;10.67;;;;;2.60;95660.00;;;;8530464;27;20220;-74
2022/11/20 02:54:48;;;;;;;37.10;10.17;;;;;2.60;95660.00;;;;8531828;27;20216;-75
2022/11/20 02:58:53;;;;;;;46.97;10.17;;;;;2.60;95645.00;;;;8530766;27;20228;-75
2022/11/20 03:03:26;;;;;;;45.70;11.70;;;;;2.60;95658.00;;;;8530217;27;20263;-74
2022/11/20 03:07:29;;;;;;;41.10;9.97;;;;;2.70;95655.00;;;;8530720;27;20215;-74
2022/11/20 03:11:32;;;;;;;47.30;10.17;;;;;2.70;95652.00;;;;8530720;27;20264;-74
2022/11/20 03:15:38;;;;;;;54.70;10.90;;;;;2.70;95643.00;;;;8530435;27;20219;-74
2022/11/20 03:19:41;;;;;;;37.53;10.10;;;;;2.70;95646.00;;;;8530996;27;20221;-74
2022/11/20 03:23:44;;;;;;;53.23;11.87;;;;;2.70;95643.00;;;;8529661;27;20554;-74
2022/11/20 03:27:47;;;;;;;54.90;11.47;;;;;2.70;95647.00;;;;8530663;27;20237;-74
2022/11/20 03:31:51;;;;;;;49.00;10.23;;;;;2.70;95644.00;;;;8529810;27;20580;-74
2022/11/20 03:35:54;;;;;;;44.47;9.47;;;;;2.70;95645.00;;;;8530187;27;20227;-74
2022/11/20 03:39:57;;;;;;;41.87;11.63;;;;;2.70;95653.00;;;;8530047;27;20648;-74
2022/11/20 03:44:31;;;;;;;55.23;10.87;;;;;2.70;95656.00;;;;8529402;27;20243;-74
2022/11/20 03:48:35;;;;;;;57.33;11.20;;;;;2.70;95651.00;;;;8528455;27;20264;-74
2022/11/20 03:52:39;;;;;;;47.73;11.27;;;;;2.70;95658.00;;;;8529574;27;20272;-73
2022/11/20 03:57:16;;;;;;;50.83;12.27;;;;;2.70;95646.00;;;;8529123;27;20215;-73
2022/11/20 04:01:21;;;;;;;58.90;11.77;;;;;2.70;95655.00;;;;8528555;27;20676;-73
2022/11/20 04:05:26;;;;;;;58.10;11.73;;;;;2.70;95654.00;;;;8530158;27;20205;-73
2022/11/20 04:09:29;;;;;;;63.60;11.50;;;;;2.80;95643.00;;;;8528968;27;20223;-73
2022/11/20 04:13:32;;;;;;;66.43;12.17;;;;;2.80;95640.00;;;;8529484;27;20622;-73
2022/11/20 04:18:08;;;;;;;65.47;12.07;;;;;2.80;95639.00;;;;8528867;27;20219;-73
2022/11/20 04:22:13;;;;;;;49.20;11.67;;;;;2.80;95639.00;;;;8528764;27;20276;-73
2022/11/20 04:26:16;;;;;;;82.90;13.10;;;;;2.80;95641.00;;;;8528707;27;20218;-73
2022/11/20 04:30:19;;;;;;;59.93;12.93;;;;;2.90;95641.00;;;;8528836;27;20237;-73
2022/11/20 04:34:22;;;;;;;69.57;13.47;;;;;2.90;95638.00;;;;8528399;27;20299;-73
2022/11/20 04:39:01;;;;;;;70.37;11.87;;;;;2.80;95635.00;;;;8529080;27;20230;-74
2022/11/20 04:43:04;;;;;;;66.27;13.60;;;;;2.80;95633.00;;;;8527928;27;20225;-74
2022/11/20 04:47:07;;;;;;;75.97;11.50;;;;;2.80;95638.00;;;;8528183;27;20232;-74
2022/11/20 04:51:10;;;;;;;55.37;11.00;;;;;2.90;95627.00;;;;8528953;27;20329;-75
2022/11/20 04:55:15;;;;;;;66.53;12.20;;;;;2.90;95627.00;;;;8527810;27;20560;-75
2022/11/20 04:59:18;;;;;;;80.47;13.43;;;;;2.90;95624.00;;;;8528253;27;20219;-75
2022/11/20 05:03:53;;;;;;;74.23;12.70;;;;;2.90;95616.00;;;;8528249;27;20229;-74
2022/11/20 05:07:57;;;;;;;65.60;10.93;;;;;2.90;95622.00;;;;8528236;27;20229;-74
2022/11/20 05:12:01;;;;;;;64.23;11.93;;;;;2.90;95624.00;;;;8528496;27;20566;-74
2022/11/20 05:16:07;;;;;;;64.00;12.00;;;;;2.90;95617.00;;;;8528285;27;20224;-74
2022/11/20 05:20:11;;;;;;;85.43;13.27;;;;;2.90;95614.00;;;;8527868;27;20285;-75
2022/11/20 05:24:14;;;;;;;76.03;11.90;;;;;2.90;95616.00;;;;8527633;27;20275;-75
2022/11/20 05:28:19;;;;;;;79.80;11.87;;;;;3.00;95620.00;;;;8533865;27;20238;-75
2022/11/20 05:32:55;;;;;;;96.33;12.93;;;;;3.00;95620.00;;;;8533643;27;20715;-74
2022/11/20 05:37:33;;;;;;;89.37;12.63;;;;;3.00;95631.00;;;;8534541;27;20645;-73
2022/11/20 05:41:36;;;;;;;93.23;12.57;;;;;2.90;95623.00;;;;8532294;27;20218;-73
2022/11/20 05:45:40;;;;;;;72.93;12.70;;;;;3.00;95632.00;;;;8533737;27;20566;-73
2022/11/20 05:50:14;;;;;;;76.53;12.13;;;;;3.00;95623.00;;;;8533044;27;20220;-74
2022/11/20 05:54:17;;;;;;;83.23;13.27;;;;;3.00;95623.00;;;;8532695;27;20220;-73
2022/11/20 05:58:20;;;;;;;78.53;12.57;;;;;3.00;95629.00;;;;8532466;27;20573;-74
2022/11/20 06:02:58;;;;;;;78.67;12.70;;;;;3.00;95619.00;;;;8533298;27;20218;-74
2022/11/20 06:07:02;;;;;;;79.40;12.00;;;;;3.00;95622.00;;;;8532463;27;20211;-73
2022/11/20 06:11:06;;;;;;;77.73;12.77;;;;;3.00;95617.00;;;;8533579;27;20220;-73
2022/11/20 06:15:39;;;;;;;68.00;12.03;;;;;3.00;95622.00;;;;8532533;27;20228;-72
2022/11/20 06:19:44;;;;;;;82.80;14.47;;;;;3.10;95622.00;;;;8531678;27;20695;-72
2022/11/20 06:23:48;;;;;;;65.00;13.10;;;;;3.10;95619.00;;;;8532070;27;20730;-72
2022/11/20 06:28:22;;;;;;;94.47;14.77;;;;;3.10;95616.00;;;;8532284;27;20566;-72
2022/11/20 06:32:59;;;;;;;61.40;11.57;;;;;3.10;95625.00;;;;8531140;27;20216;-72
2022/11/20 06:37:03;;;;;;;56.40;11.17;;;;;3.10;95620.00;;;;8532032;27;20302;-72
2022/11/20 06:41:37;;;;;;;58.03;11.40;;;;;3.10;95619.00;;;;8530641;27;20276;-71
2022/11/20 06:45:40;;;;;;;65.10;11.70;;;;;3.10;95628.00;;;;8531176;27;20656;-72
2022/11/20 06:50:17;;;;;;;75.67;10.93;;;;;3.10;95625.00;;;;8532074;27;20228;-72
2022/11/20 06:54:21;;;;;;;50.67;9.50;;;;;3.00;95626.00;;;;8531392;27;20223;-72
2022/11/20 06:58:27;;;;;;;57.90;10.80;;;;;3.10;95634.00;;;;8530200;27;20234;-72
2022/11/20 07:03:03;;;;;;;52.80;11.10;;;;;3.10;95628.00;;;;8531694;27;20298;-72
2022/11/20 07:07:06;;;;;;;60.27;10.37;;;;;3.20;95639.00;;;;8529802;27;20213;-71
2022/11/20 07:11:13;;;;;;;55.13;10.77;;;;;3.20;95640.00;;;;8530818;27;20215;-71
2022/11/20 07:15:16;;;;;;;51.37;10.10;;;;;3.20;95637.00;;;;8523654;27;20221;-71
2022/11/20 07:19:19;;;;;;;46.00;10.87;;;;;3.30;95649.00;;;;8530702;27;20562;-71
2022/11/20 07:23:23;;;;;;;48.90;10.33;;;;;3.30;95645.00;;;;8529425;27;20281;-71
2022/11/20 07:27:27;;;;;;;36.50;10.60;;;;;3.30;95643.00;;;;8530126;27;20220;-71
2022/11/20 07:31:32;;;;;;;43.70;10.37;;;;;3.40;95646.00;;;;8529696;27;20220;-71
2022/11/20 07:35:35;;;;;;;36.40;10.20;;;;;3.40;95647.00;;;;8530198;27;20270;-71
2022/11/20 07:40:10;;;;;;;47.90;12.57;;;;;3.50;95643.00;;;;8528042;27;20235;-72
2022/11/20 07:44:25;;;;;;;61.83;13.63;;;;;3.50;95645.00;;;;8529266;27;20218;-73
2022/11/20 07:48:28;;;;;;;60.63;17.00;;;;;3.60;95648.00;;;;8527832;27;20213;-74
2022/11/20 07:53:06;;;;;;;33.10;11.33;;;;;3.60;95645.00;;;;8528464;27;20219;-75
2022/11/20 07:57:09;;;;;;;33.97;9.43;;;;;3.60;95651.00;;;;8529177;27;20277;-75
2022/11/20 08:01:13;;;;;;;118.97;50.60;;;;;3.70;95644.00;;;;8499174;27;20221;-75
2022/11/20 08:05:47;;;;;;;50.90;14.37;;;;;3.70;95642.00;;;;8527970;27;20221;-74
2022/11/20 08:10:24;;;;;;;27.93;10.83;;;;;3.70;95645.00;;;;8528830;27;20508;-74
2022/11/20 08:14:27;;;;;;;24.40;8.47;;;;;3.70;95652.00;;;;8528018;27;20231;-73
2022/11/20 08:18:32;;;;;;;29.47;8.60;;;;;3.80;95657.00;;;;8528898;27;20290;-73
2022/11/20 08:22:35;;;;;;;28.27;8.17;;;;;3.80;95657.00;;;;8527641;27;20225;-73
2022/11/20 08:26:40;;;;;;;29.60;8.80;;;;;3.90;95656.00;;;;8528396;27;20653;-73
2022/11/20 08:31:14;;;;;;;33.17;11.83;;;;;3.90;95659.00;;;;8527276;27;20220;-73
2022/11/20 08:35:27;;;;;;;19.40;7.77;;;;;3.90;95657.00;;;;8499988;27;20232;-73
2022/11/20 08:39:30;;;;;;;26.40;8.23;;;;;4.00;95662.00;;;;8516947;27;20265;-73
2022/11/20 08:43:33;;;;;;;28.37;8.07;;;;;4.00;95663.00;;;;8528393;27;20547;-73
2022/11/20 08:47:36;;;;;;;40.17;10.30;;;;;4.00;95667.00;;;;8527747;27;20220;-73
2022/11/20 08:51:42;;;;;;;29.83;9.00;;;;;4.10;95665.00;;;;8529007;27;20265;-73
2022/11/20 08:55:45;;;;;;;26.67;7.83;;;;;4.10;95671.00;;;;8527400;27;20220;-72
2022/11/20 09:00:22;;;;;;;26.10;8.00;;;;;4.10;95667.00;;;;8529505;27;20227;-72
2022/11/20 09:04:59;;;;;;;29.30;8.30;;;;;4.10;95672.00;;;;8534216;27;20227;-73
2022/11/20 09:09:35;;;;;;;26.67;8.00;;;;;4.20;95671.00;;;;8533649;27;20213;-73
2022/11/20 09:14:14;;;;;;;19.83;6.97;;;;;4.30;95670.00;;;;8533815;27;20282;-72
2022/11/20 09:18:22;;;;;;;24.63;8.20;;;;;4.50;95666.00;;;;8535436;27;20228;-72
2022/11/20 09:22:53;;;;;;;24.00;8.00;;;;;4.70;95664.00;;;;8534317;27;20213;-72
2022/11/20 09:31:56;;;;;;;19.50;8.23;;;;;4.80;95661.00;;;;8528268;27;20227;-73
2022/11/20 09:36:29;;;;;;;25.30;10.57;;;;;4.90;95662.00;;;;8534447;27;20232;-75
2022/11/20 09:40:33;;;;;;;24.47;9.70;;;;;5.00;95663.00;;;;8532835;27;20287;-75
2022/11/20 09:45:16;;;;;;;26.20;10.83;;;;;5.10;95664.00;;;;8533890;27;20484;-73
2022/11/20 09:49:55;;;;;;;27.30;13.03;;;;;5.10;95660.00;;;;8532986;27;20224;-72
2022/11/20 09:54:14;;;;;;;19.77;8.73;;;;;5.20;95655.00;;;;8532014;27;20217;-72
2022/11/20 09:58:36;;;;;;;28.73;16.17;;;;;5.20;95654.00;;;;8533705;27;20281;-71
2022/11/20 10:03:14;;;;;;;16.67;6.53;;;;;5.20;95646.00;;;;8531749;27;20256;-72
2022/11/20 10:07:24;;;;;;;18.77;8.00;;;;;5.30;95647.00;;;;8532642;27;20220;-71
2022/11/20 10:11:47;;;;;;;15.70;6.87;;;;;5.30;95653.00;;;;8531753;27;20261;-73
2022/11/20 10:16:02;;;;;;;20.13;8.93;;;;;5.30;95653.00;;;;8532839;27;20381;-73
2022/11/20 10:20:30;;;;;;;18.47;7.63;;;;;5.30;95656.00;;;;8531741;27;20623;-74
2022/11/20 10:25:08;;;;;;;25.43;10.47;;;;;5.40;95646.00;;;;8532426;27;20220;-74
2022/11/20 10:29:40;;;;;;;47.63;19.10;;;;;5.50;95639.00;;;;8531312;27;20220;-75
2022/11/20 10:34:21;;;;;;;24.97;8.40;;;;;5.70;95636.00;;;;8531573;27;20244;-76
2022/11/20 10:38:52;;;;;;;20.43;8.00;;;;;5.70;95637.00;;;;8531840;27;20634;-77
2022/11/20 10:43:34;;;;;;;22.20;8.30;;;;;5.70;95626.00;;;;8531578;27;20599;-78
2022/11/20 10:48:19;;;;;;;22.30;8.70;;;;;5.70;95626.00;;;;8529745;27;20236;-76
2022/11/20 10:52:33;;;;;;;19.63;8.00;;;;;5.70;95624.00;;;;8505371;27;20233;-77
2022/11/20 10:56:41;;;;;;;22.23;7.47;;;;;5.70;95631.00;;;;8530668;27;20217;-76
2022/11/20 11:01:17;;;;;;;13.90;6.70;;;;;5.70;95641.00;;;;8531894;27;20725;-75
2022/11/20 11:05:33;;;;;;;18.50;8.83;;;;;5.50;95630.00;;;;8531011;27;20722;-73
2022/11/20 11:10:15;;;;;;;25.90;9.23;;;;;5.30;95635.00;;;;8530747;27;20688;-74
2022/11/20 11:14:18;;;;;;;21.77;8.03;;;;;5.30;95625.00;;;;8531407;27;20221;-76
2022/11/20 11:18:29;;;;;;;31.10;9.10;;;;;5.30;95614.00;;;;8530072;27;20217;-76
2022/11/20 11:22:34;;;;;;;28.30;8.13;;;;;5.50;95621.00;;;;8530713;27;20244;-77
2022/11/20 11:26:37;;;;;;;22.80;7.90;;;;;5.50;95620.00;;;;8529246;27;20626;-78
2022/11/20 11:30:45;;;;;;;18.70;6.33;;;;;5.40;95614.00;;;;8530583;27;20231;-81
2022/11/20 11:35:01;;;;;;;22.93;7.57;;;;;5.50;95610.00;;;;8530494;27;20221;-78
2022/11/20 11:39:07;;;;;;;21.97;7.23;;;;;5.40;95607.00;;;;8529541;27;20325;-79
2022/11/20 11:48:04;;;;;;;26.67;8.10;;;;;5.50;95603.00;;;;8529297;27;20269;-80
2022/11/20 11:52:16;;;;;;;25.00;7.53;;;;;5.60;95599.00;;;;8529786;27;20262;-78
2022/11/20 11:56:44;;;;;;;17.47;6.20;;;;;5.70;95592.00;;;;8529201;27;20550;-77
2022/11/20 12:00:55;;;;;;;18.13;6.27;;;;;5.90;95597.00;;;;8529213;27;20216;-77
2022/11/20 12:05:03;;;;;;;25.57;7.30;;;;;6.00;95600.00;;;;8529378;27;20232;-76
2022/11/20 12:09:36;;;;;;;20.23;6.60;;;;;6.10;95599.00;;;;8528860;27;20217;-75
2022/11/20 12:13:48;;;;;;;14.73;4.93;;;;;6.20;95588.00;;;;8528629;27;20217;-75
2022/11/20 12:18:18;;;;;;;19.43;6.53;;;;;6.20;95585.00;;;;8527552;27;20213;-74
2022/11/20 12:22:32;;;;;;;13.13;5.57;;;;;6.20;95589.00;;;;8529383;27;20224;-75
2022/11/20 12:27:02;;;;;;;19.87;6.40;;;;;6.20;95592.00;;;;8527481;27;20221;-76
2022/11/20 12:31:48;;;;;;;19.40;5.47;;;;;6.20;95591.00;;;;8528794;27;20642;-76
2022/11/20 12:36:07;;;;;;;14.20;5.20;;;;;6.30;95585.00;;;;8533253;27;20670;-76
2022/11/20 12:40:32;;;;;;;906.40;331.77;;;;;6.40;95585.00;;;;8532005;27;20205;-76
2022/11/20 12:45:09;;;;;;;83.60;39.87;;;;;6.40;95582.00;;;;8534948;27;20304;-75
2022/11/20 12:49:29;;;;;;;60.13;33.60;;;;;6.50;95580.00;;;;8534714;27;20217;-76
2022/11/20 12:53:38;;;;;;;17.80;6.53;;;;;6.50;95582.00;;;;8535508;27;20246;-76
2022/11/20 12:58:12;;;;;;;21.07;7.50;;;;;6.60;95578.00;;;;8534438;27;20309;-74
2022/11/20 13:02:27;;;;;;;17.33;7.43;;;;;6.70;95586.00;;;;8534386;27;20650;-74
2022/11/20 13:06:52;;;;;;;16.13;8.83;;;;;6.60;95582.00;;;;8534716;27;20224;-74
2022/11/20 13:11:15;;;;;;;24.07;12.30;;;;;6.60;95565.00;;;;8533739;27;20248;-76
2022/11/20 13:15:33;;;;;;;25.87;10.20;;;;;6.70;95568.00;;;;8534014;27;20213;-76
2022/11/20 13:19:37;;;;;;;18.30;9.37;;;;;6.80;95566.00;;;;8534436;27;20217;-74
2022/11/20 13:23:40;;;;;;;15.23;5.87;;;;;6.90;95560.00;;;;8533134;27;20220;-75
2022/11/20 13:32:50;;;;;;;9.50;4.80;;;;;6.90;95568.00;;;;8533541;27;20213;-76
2022/11/20 13:37:27;;;;;;;14.20;5.07;;;;;6.90;95566.00;;;;8533248;27;20274;-75
2022/11/20 13:41:56;;;;;;;19.43;5.00;;;;;6.80;95569.00;;;;8533221;27;20579;-73
2022/11/20 13:46:44;;;;;;;14.90;4.47;;;;;6.80;95580.00;;;;8533104;27;22740;-74
2022/11/20 13:55:54;;;;;;;8.37;4.10;;;;;6.70;95586.00;;;;8532708;27;20340;-73
2022/11/20 14:00:23;;;;;;;7.93;3.40;;;;;6.30;95576.00;;;;8533174;27;20217;-74
2022/11/20 14:05:00;;;;;;;6.93;2.80;;;;;6.00;95574.00;;;;8532389;27;20596;-72
2022/11/20 14:09:34;;;;;;;7.70;3.70;;;;;5.90;95565.00;;;;8526579;27;20213;-72
2022/11/20 14:14:16;;;;;;;6.93;3.80;;;;;5.90;95562.00;;;;8532722;27;20553;-72
2022/11/20 14:18:47;;;;;;;6.90;3.70;;;;;5.90;95564.00;;;;8531389;27;20213;-72
2022/11/20 14:23:25;;;;;;;8.77;3.60;;;;;5.80;95575.00;;;;8531866;27;20213;-72
2022/11/20 14:32:33;;;;;;;10.83;4.20;;;;;5.70;95574.00;;;;8532018;27;20618;-72
2022/11/20 14:37:08;;;;;;;10.37;4.20;;;;;5.70;95575.00;;;;8530402;27;20224;-71
2022/11/20 14:41:50;;;;;;;10.63;4.43;;;;;5.80;95568.00;;;;8530710;27;20527;-71
2022/11/20 14:46:19;;;;;;;8.70;3.93;;;;;5.90;95559.00;;;;8531496;27;20224;-71
2022/11/20 14:50:54;;;;;;;14.47;6.67;;;;;6.00;95557.00;;;;8530862;27;20254;-71
2022/11/20 14:55:32;;;;;;;17.37;4.40;;;;;6.00;95543.00;;;;8529906;27;20222;-71
2022/11/20 14:59:35;;;;;;;10.37;4.50;;;;;6.10;95539.00;;;;8529382;27;20532;-71
2022/11/20 15:03:40;;;;;;;10.80;4.90;;;;;6.10;95554.00;;;;8530845;27;20220;-71
2022/11/20 15:08:19;;;;;;;16.70;6.10;;;;;6.10;95540.00;;;;8529702;27;20651;-71
2022/11/20 15:12:53;;;;;;;18.90;6.13;;;;;6.20;95538.00;;;;8526733;27;20205;-70
2022/11/20 15:16:57;;;;;;;12.00;5.63;;;;;6.20;95549.00;;;;8530539;27;20228;-70
2022/11/20 15:21:04;;;;;;;16.80;6.33;;;;;6.20;95549.00;;;;8530071;27;20266;-70
2022/11/20 15:25:14;;;;;;;15.83;5.77;;;;;6.30;95550.00;;;;8530064;27;20221;-70
2022/11/20 15:29:25;;;;;;;10.27;4.63;;;;;6.30;95602.00;;;;8529990;27;20225;-70
2022/11/20 15:33:53;;;;;;;7.23;3.53;;;;;5.90;95594.00;;;;8529837;27;20561;-70
2022/11/20 15:37:56;;;;;;;7.33;3.67;;;;;5.60;95581.00;;;;8530377;27;20607;-70
2022/11/20 15:42:01;;;;;;;7.10;3.20;;;;;5.40;95591.00;;;;8529003;27;20217;-70
2022/11/20 15:46:06;;;;;;;5.17;3.27;;;;;5.20;95567.00;;;;8529488;27;20233;-70
2022/11/20 15:50:44;;;;;;;7.13;3.10;;;;;5.00;95568.00;;;;8529844;27;20220;-70
2022/11/20 15:54:47;;;;;;;7.90;3.30;;;;;5.00;95563.00;;;;8529077;27;20225;-70
2022/11/20 15:58:52;;;;;;;9.13;3.90;;;;;5.00;95570.00;;;;8529090;27;20221;-70
2022/11/20 16:02:55;;;;;;;8.93;3.73;;;;;5.00;95575.00;;;;8529362;27;20607;-71
2022/11/20 16:07:32;;;;;;;6.97;3.43;;;;;5.00;95575.00;;;;8529721;27;20243;-70
2022/11/20 16:11:36;;;;;;;6.07;3.13;;;;;5.10;95585.00;;;;8528128;27;20665;-70
2022/11/20 16:15:46;;;;;;;9.43;3.73;;;;;5.10;95581.00;;;;8529539;27;20224;-70
2022/11/20 16:19:49;;;;;;;7.37;3.33;;;;;5.10;95580.00;;;;8528496;27;20214;-70
2022/11/20 16:24:24;;;;;;;7.53;3.30;;;;;5.10;95574.00;;;;8528881;27;20311;-70
2022/11/20 16:28:27;;;;;;;7.40;3.30;;;;;5.10;95576.00;;;;8528832;27;20531;-70
2022/11/20 16:32:32;;;;;;;10.07;3.70;;;;;5.10;95570.00;;;;8528608;27;20221;-70
2022/11/20 16:37:06;;;;;;;9.47;3.90;;;;;5.10;95564.00;;;;8528413;27;20611;-71
2022/11/20 16:41:13;;;;;;;8.53;3.87;;;;;5.10;95560.00;;;;8529115;27;20209;-70
2022/11/20 16:45:16;;;;;;;9.93;3.93;;;;;5.10;95552.00;;;;8519070;27;20244;-71
2022/11/20 16:49:54;;;;;;;9.83;4.10;;;;;4.90;95577.00;;;;8525018;27;20711;-72
2022/11/20 16:54:28;;;;;;;30.37;12.47;;;;;4.80;95566.00;;;;8524862;27;20238;-71
2022/11/20 16:59:06;;;;;;;11.03;5.43;;;;;4.80;95555.00;;;;8527328;27;20213;-71
2022/11/20 17:03:40;;;;;;;12.47;6.93;;;;;4.80;95554.00;;;;8527403;27;20213;-72
2022/11/20 17:07:45;;;;;;;15.23;5.50;;;;;4.90;95563.00;;;;8527682;27;20282;-71
2022/11/20 17:12:18;;;;;;;14.60;5.23;;;;;5.00;95562.00;;;;8527044;27;20219;-72
2022/11/20 17:16:55;;;;;;;12.03;5.07;;;;;5.00;95548.00;;;;8526597;27;20225;-71
2022/11/20 17:21:34;;;;;;;24.13;6.97;;;;;5.00;95552.00;;;;8528502;27;20574;-71
2022/11/20 17:26:13;;;;;;;32.80;13.10;;;;;5.00;95547.00;;;;8533027;27;20301;-71
2022/11/20 17:31:11;;;;;;;53.13;12.17;;;;;5.00;95539.00;;;;8532865;27;20220;-71
2022/11/20 17:35:48;;;;;;;31.87;9.63;;;;;4.80;95539.00;;;;8533365;27;20234;-71
2022/11/20 17:40:25;;;;;;;15.70;6.77;;;;;4.70;95536.00;;;;8533702;27;20221;-71
2022/11/20 17:45:02;;;;;;;26.43;8.40;;;;;4.60;95550.00;;;;8533823;27;20209;-71
2022/11/20 17:49:40;;;;;;;15.20;7.23;;;;;4.50;95536.00;;;;8532560;27;20248;-72
2022/11/20 17:54:16;;;;;;;22.57;8.37;;;;;4.50;95534.00;;;;8532686;27;20216;-72
2022/11/20 17:58:53;;;;;;;52.00;14.27;;;;;4.40;95537.00;;;;8532508;27;20280;-71
2022/11/20 18:03:31;;;;;;;19.13;7.20;;;;;4.30;95539.00;;;;8531906;27;20277;-74
2022/11/20 18:08:05;;;;;;;20.40;7.23;;;;;4.20;95528.00;;;;8531927;27;20584;-75
2022/11/20 18:12:42;;;;;;;19.93;7.97;;;;;4.10;95530.00;;;;8532315;27;20622;-75
2022/11/20 18:17:20;;;;;;;21.43;7.67;;;;;4.00;95520.00;;;;8531955;27;20217;-76
2022/11/20 18:22:00;;;;;;;13.03;6.57;;;;;3.80;95511.00;;;;8531168;27;20237;-76
2022/11/20 18:26:34;;;;;;;14.87;6.13;;;;;3.60;95505.00;;;;8531630;27;20640;-77
2022/11/20 18:31:10;;;;;;;16.93;6.63;;;;;3.30;95505.00;;;;8531843;27;20280;-78
2022/11/20 18:35:47;;;;;;;21.57;7.73;;;;;3.20;95497.00;;;;8531343;27;20217;-77
2022/11/20 18:40:26;;;;;;;46.90;12.20;;;;;3.30;95501.00;;;;8531351;27;20548;-78
2022/11/20 18:45:01;;;;;;;40.37;13.67;;;;;3.30;95487.00;;;;8530735;27;20211;-77
2022/11/20 18:49:34;;;;;;;28.27;10.73;;;;;3.40;95480.00;;;;8528946;27;20259;-79
2022/11/20 18:54:12;;;;;;;28.87;11.83;;;;;3.50;95467.00;;;;8529770;27;20611;-79
2022/11/20 18:58:50;;;;;;;36.97;13.00;;;;;3.40;95467.00;;;;8531752;27;20219;-79
2022/11/20 19:03:27;;;;;;;42.93;13.70;;;;;3.40;95465.00;;;;8530822;27;20543;-80
2022/11/20 19:07:30;;;;;;;29.73;12.83;;;;;3.30;95468.00;;;;8520409;27;20218;-81
2022/11/20 19:12:07;;;;;;;36.00;13.70;;;;;3.30;95469.00;;;;8531071;27;20232;-78
2022/11/20 19:16:46;;;;;;;39.37;12.80;;;;;3.40;95478.00;;;;8530967;27;20607;-78
2022/11/20 19:21:24;;;;;;;34.90;12.23;;;;;3.40;95466.00;;;;8530768;27;20558;-78
2022/11/20 19:26:01;;;;;;;26.87;10.70;;;;;3.40;95469.00;;;;8530190;27;20275;-79
2022/11/20 19:35:36;;;;;;;34.27;11.57;;;;;3.40;95460.00;;;;8529648;27;20225;-78
2022/11/20 19:39:57;;;;;;;34.27;11.47;;;;;3.40;95444.00;;;;8530014;27;20344;-78
2022/11/20 19:44:28;;;;;;;30.97;11.00;;;;;3.30;95449.00;;;;8529126;27;20244;-78
2022/11/20 19:49:06;;;;;;;26.13;9.70;;;;;3.30;95446.00;;;;8527195;27;20221;-79
2022/11/20 19:53:40;;;;;;;28.90;11.50;;;;;3.30;95447.00;;;;8528141;27;20257;-79
2022/11/20 19:58:16;;;;;;;28.93;10.83;;;;;3.30;95445.00;;;;8527721;27;20630;-79
2022/11/20 20:02:55;;;;;;;21.70;8.63;;;;;3.40;95435.00;;;;8518604;27;20257;-78
2022/11/20 20:07:29;;;;;;;22.20;8.97;;;;;3.40;95427.00;;;;8528500;27;20265;-78
2022/11/20 20:12:06;;;;;;;30.77;10.53;;;;;3.50;95426.00;;;;8529106;27;20224;-80
2022/11/20 20:16:42;;;;;;;24.10;9.90;;;;;3.60;95423.00;;;;8528911;27;20273;-79
2022/11/20 20:21:01;;;;;;;23.37;10.10;;;;;3.60;95423.00;;;;8528200;27;20232;-79
2022/11/20 20:25:06;;;;;;;18.77;7.40;;;;;3.70;95412.00;;;;8528471;27;20217;-79
2022/11/20 20:29:43;;;;;;;20.83;8.63;;;;;3.80;95409.00;;;;8528749;27;20240;-79
2022/11/20 20:33:46;;;;;;;23.07;9.20;;;;;3.80;95403.00;;;;8525636;27;20623;-79
2022/11/20 20:37:51;;;;;;;19.80;8.80;;;;;3.80;95391.00;;;;8529333;27;20305;-80
2022/11/20 20:42:24;;;;;;;23.63;9.10;;;;;3.80;95394.00;;;;8527908;27;20225;-79
2022/11/20 20:47:02;;;;;;;29.30;9.67;;;;;3.70;95387.00;;;;8528200;27;20216;-79
2022/11/20 20:51:39;;;;;;;27.97;10.03;;;;;3.60;95392.00;;;;8528286;27;20217;-80
2022/11/20 20:56:00;;;;;;;18.80;7.70;;;;;3.50;95391.00;;;;8530376;27;20220;-84
2022/11/20 21:00:31;;;;;;;16.00;7.73;;;;;3.40;95383.00;;;;8534704;27;20242;-85
2022/11/20 21:05:07;;;;;;;27.83;9.13;;;;;3.40;95370.00;;;;8534805;27;20213;-84
2022/11/20 21:09:45;;;;;;;18.97;9.17;;;;;3.30;95364.00;;;;8535069;27;20275;-82
2022/11/20 21:14:23;;;;;;;19.77;8.47;;;;;3.30;95368.00;;;;8532390;27;20225;-80
2022/11/20 21:18:57;;;;;;;23.00;9.23;;;;;3.40;95362.00;;;;8534520;27;20213;-79
2022/11/20 21:23:35;;;;;;;18.93;9.10;;;;;3.50;95369.00;;;;8523035;27;20209;-78
2022/11/20 21:28:08;;;;;;;29.03;10.33;;;;;3.60;95370.00;;;;8533709;27;20535;-80
2022/11/20 21:32:20;;;;;;;20.17;8.73;;;;;3.80;95356.00;;;;8533645;27;20293;-78
2022/11/20 21:36:53;;;;;;;23.37;9.07;;;;;3.90;95363.00;;;;8534213;27;20648;-77
2022/11/20 21:40:57;;;;;;;19.33;8.03;;;;;4.00;95361.00;;;;8532197;27;20220;-76
2022/11/20 21:45:01;;;;;;;20.37;8.47;;;;;4.10;95359.00;;;;8499590;27;20647;-76
2022/11/20 21:49:39;;;;;;;22.23;9.33;;;;;4.20;95357.00;;;;8499097;27;20233;-77
2022/11/20 21:53:43;;;;;;;13.70;5.87;;;;;4.30;95353.00;;;;8499425;27;20293;-76
2022/11/20 21:57:47;;;;;;;15.40;6.70;;;;;4.50;95353.00;;;;8498849;27;20262;-75
2022/11/20 22:02:24;;;;;;;14.23;5.47;;;;;4.60;95360.00;;;;8499490;27;20213;-75